Pagrindinis puslapis
METAR-TAF:

METAR-TAF

Oro uostai :

Bric della Croce

Turinas, Italija

platuma: 45-02N, ilguma: 007-44E, Aukštis: 709 m

Dabartinis oras

Ataskaita buvo paskelbta 53 minutes, ne 17:55 UTC
Vėjas 3 kt iš Šiaurės/Šiaurės Vakarų
Temperatūra 14°C
Drėgmė 100%
Slėgis 1021 hPa
Matomumas: 0100 m
rūkas

METAR: LIMK 191755Z 34003KT 0100 FG VV001 14/14 Q1021 RMK VAL INVIS VIS MIN 0100

Laikas: 20:48 (18:48 UTC)


TAF: trūkstamas

Orai ataskaitas ir orų prognozės (METAR, TAF).

turimą stotys yra geltonos ir raudonos taškus žemėlapyje.

Perkelti pele per norėdami pamatyti stoties vardą.

Tada spustelėkite, norėdami matyti oro stebėjimo ir prognozės.

Norėdami pakeisti žemėlapį: spustelėkite ant žalios mygtukų su juodo kryžiaus žemyn,; žalią mygtuką su brūkšneliu, jei norite nutolinti; arba žalių rodyklių gretimoms žemėlapius.


METAR-TAF: